Terminal Aerodrome Forecast
Issued by NWS

Home | Current Version | Previous Version | Text Only | Print | Product List | Glossary On
Versions: 1 2 3 4 5 6 7 8 9 10 11 12 13 14 15 16 17 18 19
000
FTUS41 KGYX 010523
TAFAUG
TAF
KAUG 010523Z 0106/0206 35004KT P6SM OVC015
     FM010800 03004KT 3SM BR SCT005 OVC015
     FM011500 03010KT P6SM OVC025=

USA.gov is the U.S. government's official web portal to all federal, state and local government web resources and services.